Time;durP1;ratioP1;P1;durP2;ratioP2;P2;SDS_P1;SDS_P2;PMS_P1;PMS_P2;Temp;Humidity;BMP_temperature;BMP_pressure;BME280_temperature;BME280_humidity;BME280_pressure;Samples;Min_cycle;Max_cycle;Signal;HPM_P1;HPM_P2
2022/06/02 00:03:43;;;;;;;35.28;21.98;;;11.60;99.90;;;;;;21053033;28;20382;-51
2022/06/02 00:13:55;;;;;;;48.40;29.10;;;11.40;99.90;;;;;;21041581;28;20039;-51
2022/06/02 00:24:15;;;;;;;41.47;24.92;;;11.30;99.90;;;;;;21032657;28;20040;-54
2022/06/02 00:34:40;;;;;;;49.00;30.53;;;11.30;99.90;;;;;;21062308;28;20040;-52
2022/06/02 00:45:10;;;;;;;46.38;28.05;;;11.40;99.90;;;;;;21050073;28;20044;-56
2022/06/02 01:06:27;;;;;;;47.53;28.33;;;11.40;99.90;;;;;;20768249;28;20073;-54
2022/06/02 01:16:38;;;;;;;39.20;26.08;;;11.20;99.90;;;;;;20749360;28;20084;-58
2022/06/02 01:27:11;;;;;;;46.53;30.80;;;11.10;99.90;;;;;;20781903;28;20686;-57
2022/06/02 01:37:22;;;;;;;39.03;23.83;;;11.00;99.90;;;;;;20872742;28;20743;-55
2022/06/02 01:47:33;;;;;;;42.60;27.38;;;11.10;99.90;;;;;;21056014;28;20531;-58
2022/06/02 01:57:38;;;;;;;34.85;22.23;;;11.00;99.90;;;;;;21055242;28;20062;-54
2022/06/02 02:08:21;;;;;;;35.75;21.65;;;11.00;99.90;;;;;;21048824;28;20048;-55
2022/06/02 02:18:36;;;;;;;37.80;23.03;;;10.90;99.90;;;;;;21052859;28;20032;-50
2022/06/02 02:28:50;;;;;;;31.48;19.90;;;10.90;99.90;;;;;;21051798;28;20040;-55
2022/06/02 02:38:59;;;;;;;32.72;21.80;;;10.80;99.90;;;;;;21045884;28;20128;-54
2022/06/02 02:49:28;;;;;;;33.35;22.40;;;10.60;99.90;;;;;;21049662;28;20370;-53
2022/06/02 02:59:31;;;;;;;38.25;24.02;;;10.60;99.90;;;;;;21044608;28;20106;-54
2022/06/02 03:10:12;;;;;;;33.65;21.27;;;10.60;99.90;;;;;;21040262;28;20066;-55
2022/06/02 03:20:47;;;;;;;35.17;23.15;;;10.60;99.90;;;;;;21027878;28;20505;-57
2022/06/02 03:30:57;;;;;;;44.25;26.98;;;10.60;99.90;;;;;;21018081;28;20439;-58
2022/06/02 03:41:10;;;;;;;44.33;27.30;;;10.60;99.90;;;;;;21045190;28;20048;-55
2022/06/02 03:51:53;;;;;;;41.90;25.95;;;10.70;99.90;;;;;;21052445;28;20090;-56
2022/06/02 04:02:08;;;;;;;37.97;23.17;;;10.80;99.90;;;;;;21031430;28;20081;-56
2022/06/02 04:23:08;;;;;;;30.30;20.45;;;10.90;99.90;;;;;;21045615;28;20044;-57
2022/06/02 04:33:14;;;;;;;32.60;20.40;;;11.20;99.90;;;;;;21060540;28;20032;-55
2022/06/02 04:43:59;;;;;;;46.00;29.95;;;11.40;99.90;;;;;;21057191;28;20450;-56
2022/06/02 04:54:16;;;;;;;38.58;21.70;;;11.70;99.90;;;;;;20623035;28;20093;-56
2022/06/02 05:04:55;;;;;;;37.75;21.70;;;12.10;99.90;;;;;;20656941;28;20076;-56
2022/06/02 05:15:09;;;;;;;31.20;20.85;;;12.40;99.90;;;;;;20697736;28;20152;-54
2022/06/02 05:25:22;;;;;;;31.00;19.92;;;12.80;99.90;;;;;;20843215;28;20382;-55
2022/06/02 05:35:48;;;;;;;30.52;18.80;;;12.90;99.90;;;;;;21073883;28;20095;-55
2022/06/02 05:46:26;;;;;;;36.30;24.73;;;13.10;99.90;;;;;;20798335;28;20095;-55
2022/06/02 05:57:05;;;;;;;29.65;18.08;;;13.20;99.90;;;;;;20732368;28;20081;-58
2022/06/02 06:07:12;;;;;;;23.63;17.27;;;13.70;99.90;;;;;;20727933;28;20050;-53
2022/06/02 06:17:37;;;;;;;14.98;11.30;;;14.80;99.90;;;;;;20822895;28;20133;-56
2022/06/02 06:27:57;;;;;;;16.42;12.77;;;19.20;99.90;;;;;;21053030;28;20032;-56
2022/06/02 06:38:31;;;;;;;13.98;11.77;;;22.70;99.90;;;;;;21054182;28;20052;-60
2022/06/02 06:49:11;;;;;;;14.85;11.27;;;24.30;99.90;;;;;;21040860;28;20066;-61
2022/06/02 06:59:33;;;;;;;16.08;12.77;;;26.40;95.60;;;;;;20629868;28;20074;-61
2022/06/02 07:10:07;;;;;;;15.45;11.60;;;26.50;94.60;;;;;;20637186;28;20641;-58
2022/06/02 07:20:22;;;;;;;14.65;13.15;;;26.70;93.50;;;;;;20588540;28;20073;-61
2022/06/02 07:30:56;;;;;;;21.85;14.32;;;25.00;94.50;;;;;;20672480;28;20099;-61
2022/06/02 07:41:40;;;;;;;18.92;14.38;;;24.40;95.70;;;;;;20861884;28;20491;-60
2022/06/02 07:51:49;;;;;;;17.17;15.25;;;23.70;97.40;;;;;;20738853;28;20103;-62
2022/06/02 08:02:06;;;;;;;18.73;15.20;;;25.00;96.50;;;;;;20719530;28;20100;-62
2022/06/02 08:12:31;;;;;;;17.02;14.52;;;25.10;95.60;;;;;;20704838;28;20112;-62
2022/06/02 08:22:38;;;;;;;17.85;15.95;;;26.20;94.40;;;;;;20892048;28;20044;-63
2022/06/02 08:33:05;;;;;;;19.85;16.05;;;27.40;93.60;;;;;;21055545;28;20028;-63
2022/06/02 08:43:58;;;;;;;19.13;15.98;;;27.60;92.80;;;;;;21069792;28;20562;-63
2022/06/02 08:54:20;;;;;;;18.33;15.88;;;26.50;94.30;;;;;;20634199;28;20070;-59
2022/06/02 09:04:39;;;;;;;21.42;17.50;;;25.30;96.50;;;;;;20647684;28;20073;-63
2022/06/02 09:15:05;;;;;;;19.23;14.65;;;26.00;95.50;;;;;;20745776;28;20085;-58
2022/06/02 09:25:33;;;;;;;19.27;17.23;;;25.90;94.80;;;;;;20837939;28;20040;-61
2022/06/02 09:35:50;;;;;;;23.20;19.85;;;24.60;96.60;;;;;;20635796;28;20141;-58
2022/06/02 09:46:21;;;;;;;20.23;17.98;;;23.90;98.70;;;;;;20633482;28;20046;-61
2022/06/02 09:56:42;;;;;;;24.88;19.33;;;23.40;99.90;;;;;;20672562;28;20201;-61
2022/06/02 10:07:31;;;;;;;25.15;21.48;;;23.30;99.90;;;;;;20786935;28;20040;-64
2022/06/02 10:17:51;;;;;;;25.92;21.00;;;24.80;99.90;;;;;;21036695;28;20032;-62
2022/06/02 10:28:21;;;;;;;22.15;19.40;;;24.60;98.50;;;;;;21045058;28;20051;-63
2022/06/02 10:38:51;;;;;;;29.48;23.75;;;24.60;99.90;;;;;;21038305;28;20101;-63
2022/06/02 10:49:15;;;;;;;23.80;20.40;;;25.40;99.90;;;;;;21046349;28;20035;-58
2022/06/02 10:59:24;;;;;;;27.30;22.48;;;25.00;98.80;;;;;;21050073;28;20032;-58
2022/06/02 11:10:11;;;;;;;23.05;16.92;;;24.70;99.90;;;;;;21048513;28;20097;-65
2022/06/02 11:20:40;;;;;;;24.80;18.47;;;27.00;97.10;;;;;;21015618;28;20075;-65
2022/06/02 11:30:43;;;;;;;25.30;17.33;;;27.70;95.70;;;;;;21043942;28;20081;-64
2022/06/02 11:41:07;;;;;;;20.20;17.40;;;28.10;95.50;;;;;;21046278;28;20121;-59
2022/06/02 11:51:38;;;;;;;18.63;15.23;;;26.90;94.80;;;;;;21036005;28;20035;-59
2022/06/02 12:02:12;;;;;;;19.17;16.45;;;27.00;96.80;;;;;;21075008;28;20342;-64
2022/06/02 12:12:34;;;;;;;22.55;17.50;;;27.60;95.10;;;;;;21042313;28;20093;-58
2022/06/02 12:23:03;;;;;;;17.15;14.95;;;26.80;95.00;;;;;;21076194;28;20039;-66
2022/06/02 12:33:11;;;;;;;20.65;15.63;;;27.30;95.90;;;;;;21038490;28;20085;-64
2022/06/02 12:43:18;;;;;;;19.90;15.15;;;27.80;93.30;;;;;;21025081;28;20048;-64
2022/06/02 12:54:00;;;;;;;18.08;15.75;;;27.40;94.40;;;;;;21039279;28;20032;-62
2022/06/02 13:04:34;;;;;;;17.65;13.23;;;25.90;95.30;;;;;;21035901;28;20108;-65
2022/06/02 13:14:49;;;;;;;14.65;13.13;;;26.20;95.90;;;;;;21046686;28;20040;-65
2022/06/02 13:25:25;;;;;;;15.90;12.65;;;27.00;95.30;;;;;;21035316;28;20028;-65
2022/06/02 13:35:37;;;;;;;;;;;28.20;93.50;;;;;;21054305;28;20097;-65
2022/06/02 13:45:53;;;;;;;15.80;13.07;;;27.40;95.10;;;;;;21071982;28;19973;-63
2022/06/02 14:06:45;;;;;;;15.60;13.10;;;25.80;97.20;;;;;;21063890;28;20044;-63
2022/06/02 14:17:09;;;;;;;15.95;13.30;;;26.20;95.30;;;;;;21055509;28;20097;-64
2022/06/02 14:27:49;;;;;;;15.50;12.73;;;26.50;95.50;;;;;;21037586;28;20040;-63
2022/06/02 14:38:33;;;;;;;17.95;14.40;;;25.20;97.80;;;;;;21065297;28;20374;-62
2022/06/02 14:48:57;;;;;;;15.27;13.05;;;25.60;96.20;;;;;;20627176;28;20058;-61
2022/06/02 14:59:40;;;;;;;15.80;13.82;;;24.10;98.10;;;;;;20646432;28;20073;-61
2022/06/02 15:10:09;;;;;;;13.88;12.35;;;22.80;99.30;;;;;;20694635;28;20058;-60
2022/06/02 15:20:24;;;;;;;20.33;15.27;;;21.80;99.90;;;;;;20904365;28;20047;-60
2022/06/02 15:30:53;;;;;;;21.33;15.55;;;21.40;99.90;;;;;;21064832;28;20393;-59
2022/06/02 15:41:31;;;;;;;19.08;15.10;;;20.80;99.90;;;;;;21063863;28;20460;-59
2022/06/02 15:52:00;;;;;;;22.80;15.27;;;20.60;99.90;;;;;;21035481;28;20049;-60
2022/06/02 16:02:50;;;;;;;19.42;14.35;;;20.60;99.90;;;;;;21036868;28;20066;-60
2022/06/02 16:13:05;;;;;;;17.63;13.77;;;20.30;99.90;;;;;;21038756;28;20036;-60
2022/06/02 16:23:39;;;;;;;18.75;13.52;;;20.00;99.90;;;;;;21044676;28;20039;-60
2022/06/02 16:34:00;;;;;;;19.70;15.90;;;19.80;99.90;;;;;;21043385;28;20066;-59
2022/06/02 16:44:25;;;;;;;20.10;14.75;;;19.40;99.90;;;;;;21027624;28;20060;-60
2022/06/02 16:54:41;;;;;;;19.88;15.68;;;19.20;99.90;;;;;;21039105;28;20048;-59
2022/06/02 17:05:32;;;;;;;21.05;14.98;;;18.80;99.90;;;;;;21044625;28;20036;-59
2022/06/02 17:16:08;;;;;;;17.55;14.43;;;18.70;99.90;;;;;;20745720;28;20042;-60
2022/06/02 17:27:01;;;;;;;18.42;13.90;;;18.80;99.90;;;;;;20711563;28;20065;-60
2022/06/02 17:37:39;;;;;;;21.52;15.27;;;18.70;99.90;;;;;;20718528;28;20050;-59
2022/06/02 17:48:21;;;;;;;18.70;15.38;;;18.40;99.90;;;;;;20897846;28;20102;-59
2022/06/02 17:58:39;;;;;;;25.33;17.08;;;18.00;99.90;;;;;;21054191;28;20078;-59
2022/06/02 18:09:00;;;;;;;24.88;16.85;;;17.30;99.90;;;;;;21069898;28;20048;-59
2022/06/02 18:19:17;;;;;;;24.25;17.13;;;16.80;99.90;;;;;;21054057;28;20032;-59
2022/06/02 18:29:42;;;;;;;28.10;19.77;;;16.20;99.90;;;;;;21049903;28;20562;-56
2022/06/02 18:40:13;;;;;;;37.00;26.70;;;15.70;99.90;;;;;;21061739;28;20097;-58
2022/06/02 18:50:42;;;;;;;33.25;22.77;;;15.30;99.90;;;;;;21025855;28;20092;-59
2022/06/02 19:01:36;;;;;;;39.85;24.35;;;15.00;99.90;;;;;;21051258;28;20048;-58
2022/06/02 19:23:00;;;;;;;39.83;25.17;;;14.60;99.90;;;;;;20676729;28;20112;-59
2022/06/02 19:33:25;;;;;;;36.67;24.38;;;14.60;99.90;;;;;;20664951;28;20113;-59
2022/06/02 19:43:47;;;;;;;37.28;24.63;;;14.40;99.90;;;;;;20864280;28;20489;-58
2022/06/02 19:54:02;;;;;;;40.72;27.02;;;14.20;99.90;;;;;;21046411;28;20445;-53
2022/06/02 20:04:20;;;;;;;51.08;33.20;;;14.10;99.90;;;;;;21038899;28;20024;-58
2022/06/02 20:14:33;;;;;;;44.08;27.63;;;13.90;99.90;;;;;;21035370;28;20044;-58
2022/06/02 20:24:50;;;;;;;41.60;25.13;;;14.00;99.90;;;;;;21024935;28;20626;-58
2022/06/02 20:35:23;;;;;;;49.55;30.10;;;13.90;99.90;;;;;;21045056;28;20553;-58
2022/06/02 20:45:53;;;;;;;40.22;26.23;;;13.90;99.90;;;;;;20951010;28;20410;-58
2022/06/02 20:56:01;;;;;;;;;;;13.90;99.90;;;;;;20977714;28;20063;-58
2022/06/02 21:06:35;;;;;;;47.60;28.67;;;13.80;99.90;;;;;;20960361;28;19909;-54
2022/06/02 21:16:41;;;;;;;36.15;23.48;;;13.80;99.90;;;;;;20720169;28;20100;-55
2022/06/02 21:27:07;;;;;;;35.40;22.73;;;13.80;99.90;;;;;;20736706;28;20042;-58
2022/06/02 21:37:13;;;;;;;37.60;24.08;;;13.70;99.90;;;;;;20744610;28;20565;-59
2022/06/02 21:47:30;;;;;;;24.98;17.63;;;13.70;99.90;;;;;;20922682;28;20094;-56
2022/06/02 21:57:41;;;;;;;33.90;21.88;;;13.50;99.90;;;;;;20985411;28;20550;-58
2022/06/02 22:07:50;;;;;;;42.35;26.95;;;13.40;99.90;;;;;;20968472;28;20197;-58
2022/06/02 22:18:34;;;;;;;36.38;23.17;;;13.20;99.90;;;;;;20960202;28;20094;-59
2022/06/02 22:28:37;;;;;;;31.17;21.15;;;13.20;99.90;;;;;;20808200;28;20045;-58
2022/06/02 22:39:06;;;;;;;35.17;23.98;;;13.10;99.90;;;;;;20815932;28;20073;-58
2022/06/02 22:49:44;;;;;;;40.77;25.97;;;13.10;99.90;;;;;;20836875;28;20092;-58
2022/06/02 23:00:08;;;;;;;41.38;25.48;;;13.10;99.90;;;;;;20770174;28;20110;-58
2022/06/02 23:10:14;;;;;;;39.05;26.10;;;13.20;99.90;;;;;;20974557;28;20072;-52
2022/06/02 23:20:27;;;;;;;44.63;28.30;;;13.40;99.90;;;;;;20948311;28;20040;-53
2022/06/02 23:30:47;;;;;;;35.28;21.63;;;13.60;99.90;;;;;;20993827;28;20097;-58
2022/06/02 23:41:13;;;;;;;39.50;24.27;;;13.70;99.90;;;;;;21064537;28;20052;-58
2022/06/02 23:51:45;;;;;;;34.10;22.23;;;13.90;99.90;;;;;;20984275;28;20067;-59
